sensor_id;sensor_type;location;lat;lon;timestamp;P1;durP1;ratioP1;P2;durP2;ratioP2
22160;SDS011;49035;48.812;11.762;2023-03-05T00:02:04;41.27;;;17.97;;
22160;SDS011;49035;48.812;11.762;2023-03-05T00:04:30;40.67;;;18.17;;
22160;SDS011;49035;48.812;11.762;2023-03-05T00:06:55;40.90;;;18.27;;
22160;SDS011;49035;48.812;11.762;2023-03-05T00:09:21;39.27;;;17.10;;
22160;SDS011;49035;48.812;11.762;2023-03-05T00:11:47;39.80;;;18.57;;
22160;SDS011;49035;48.812;11.762;2023-03-05T00:14:12;39.47;;;17.97;;
22160;SDS011;49035;48.812;11.762;2023-03-05T00:16:38;36.03;;;18.33;;
22160;SDS011;49035;48.812;11.762;2023-03-05T00:19:04;44.67;;;18.90;;
22160;SDS011;49035;48.812;11.762;2023-03-05T00:21:32;40.30;;;18.57;;
22160;SDS011;49035;48.812;11.762;2023-03-05T00:24:03;36.57;;;17.70;;
22160;SDS011;49035;48.812;11.762;2023-03-05T00:26:33;43.73;;;19.53;;
22160;SDS011;49035;48.812;11.762;2023-03-05T00:28:59;41.53;;;19.37;;
22160;SDS011;49035;48.812;11.762;2023-03-05T00:31:26;44.87;;;19.87;;
22160;SDS011;49035;48.812;11.762;2023-03-05T00:33:58;42.23;;;19.00;;
22160;SDS011;49035;48.812;11.762;2023-03-05T00:36:25;39.27;;;20.27;;
22160;SDS011;49035;48.812;11.762;2023-03-05T00:38:51;38.83;;;19.60;;
22160;SDS011;49035;48.812;11.762;2023-03-05T00:41:17;36.57;;;18.63;;
22160;SDS011;49035;48.812;11.762;2023-03-05T00:43:43;37.27;;;18.20;;
22160;SDS011;49035;48.812;11.762;2023-03-05T00:46:09;40.67;;;18.50;;
22160;SDS011;49035;48.812;11.762;2023-03-05T00:48:35;38.57;;;17.90;;
22160;SDS011;49035;48.812;11.762;2023-03-05T00:51:00;40.10;;;19.73;;
22160;SDS011;49035;48.812;11.762;2023-03-05T00:53:27;40.73;;;19.50;;
22160;SDS011;49035;48.812;11.762;2023-03-05T00:55:52;37.50;;;18.43;;
22160;SDS011;49035;48.812;11.762;2023-03-05T00:58:18;47.50;;;20.17;;
22160;SDS011;49035;48.812;11.762;2023-03-05T01:00:43;44.67;;;19.73;;
22160;SDS011;49035;48.812;11.762;2023-03-05T01:03:09;44.23;;;20.30;;
22160;SDS011;49035;48.812;11.762;2023-03-05T01:05:35;38.87;;;19.97;;
22160;SDS011;49035;48.812;11.762;2023-03-05T01:08:00;47.20;;;20.17;;
22160;SDS011;49035;48.812;11.762;2023-03-05T01:10:26;42.40;;;19.97;;
22160;SDS011;49035;48.812;11.762;2023-03-05T01:12:53;48.77;;;21.47;;
22160;SDS011;49035;48.812;11.762;2023-03-05T01:15:20;42.20;;;19.47;;
22160;SDS011;49035;48.812;11.762;2023-03-05T01:17:46;44.07;;;19.03;;
22160;SDS011;49035;48.812;11.762;2023-03-05T01:20:13;42.70;;;20.03;;
22160;SDS011;49035;48.812;11.762;2023-03-05T01:22:40;44.33;;;19.90;;
22160;SDS011;49035;48.812;11.762;2023-03-05T01:25:06;46.80;;;19.57;;
22160;SDS011;49035;48.812;11.762;2023-03-05T01:27:32;44.70;;;20.00;;
22160;SDS011;49035;48.812;11.762;2023-03-05T01:29:58;42.20;;;20.53;;
22160;SDS011;49035;48.812;11.762;2023-03-05T01:32:24;45.43;;;19.43;;
22160;SDS011;49035;48.812;11.762;2023-03-05T01:34:49;43.33;;;20.63;;
22160;SDS011;49035;48.812;11.762;2023-03-05T01:37:15;44.37;;;20.70;;
22160;SDS011;49035;48.812;11.762;2023-03-05T01:39:41;41.33;;;19.53;;
22160;SDS011;49035;48.812;11.762;2023-03-05T01:42:06;48.30;;;20.93;;
22160;SDS011;49035;48.812;11.762;2023-03-05T01:44:32;40.87;;;19.87;;
22160;SDS011;49035;48.812;11.762;2023-03-05T01:46:58;46.27;;;20.50;;
22160;SDS011;49035;48.812;11.762;2023-03-05T01:49:24;41.43;;;20.83;;
22160;SDS011;49035;48.812;11.762;2023-03-05T01:52:03;41.73;;;19.60;;
22160;SDS011;49035;48.812;11.762;2023-03-05T01:57:45;48.67;;;21.00;;
22160;SDS011;49035;48.812;11.762;2023-03-05T02:00:25;45.83;;;20.63;;
22160;SDS011;49035;48.812;11.762;2023-03-05T02:02:54;44.23;;;20.20;;
22160;SDS011;49035;48.812;11.762;2023-03-05T02:05:22;46.50;;;20.57;;
22160;SDS011;49035;48.812;11.762;2023-03-05T02:07:56;41.77;;;20.30;;
22160;SDS011;49035;48.812;11.762;2023-03-05T02:10:24;45.27;;;21.13;;
22160;SDS011;49035;48.812;11.762;2023-03-05T02:12:52;50.33;;;22.63;;
22160;SDS011;49035;48.812;11.762;2023-03-05T02:15:21;44.37;;;20.50;;
22160;SDS011;49035;48.812;11.762;2023-03-05T02:17:47;43.30;;;20.43;;
22160;SDS011;49035;48.812;11.762;2023-03-05T02:20:17;44.13;;;19.13;;
22160;SDS011;49035;48.812;11.762;2023-03-05T02:22:47;43.60;;;20.70;;
22160;SDS011;49035;48.812;11.762;2023-03-05T02:25:17;44.10;;;20.23;;
22160;SDS011;49035;48.812;11.762;2023-03-05T02:30:31;49.63;;;21.53;;
22160;SDS011;49035;48.812;11.762;2023-03-05T02:32:57;45.30;;;20.87;;
22160;SDS011;49035;48.812;11.762;2023-03-05T02:35:23;45.43;;;20.40;;
22160;SDS011;49035;48.812;11.762;2023-03-05T02:37:49;51.53;;;21.33;;
22160;SDS011;49035;48.812;11.762;2023-03-05T02:40:15;51.93;;;21.33;;
22160;SDS011;49035;48.812;11.762;2023-03-05T02:42:41;47.47;;;20.10;;
22160;SDS011;49035;48.812;11.762;2023-03-05T02:45:07;48.13;;;20.97;;
22160;SDS011;49035;48.812;11.762;2023-03-05T02:47:34;45.30;;;21.07;;
22160;SDS011;49035;48.812;11.762;2023-03-05T02:49:59;45.27;;;19.93;;
22160;SDS011;49035;48.812;11.762;2023-03-05T02:52:26;49.77;;;21.87;;
22160;SDS011;49035;48.812;11.762;2023-03-05T02:54:53;45.47;;;20.53;;
22160;SDS011;49035;48.812;11.762;2023-03-05T02:57:18;43.80;;;20.60;;
22160;SDS011;49035;48.812;11.762;2023-03-05T02:59:44;51.20;;;22.00;;
22160;SDS011;49035;48.812;11.762;2023-03-05T03:02:11;42.70;;;18.93;;
22160;SDS011;49035;48.812;11.762;2023-03-05T03:04:36;48.00;;;19.83;;
22160;SDS011;49035;48.812;11.762;2023-03-05T03:07:02;44.50;;;19.63;;
22160;SDS011;49035;48.812;11.762;2023-03-05T03:09:28;45.63;;;20.60;;
22160;SDS011;49035;48.812;11.762;2023-03-05T03:11:53;42.60;;;19.50;;
22160;SDS011;49035;48.812;11.762;2023-03-05T03:14:19;52.00;;;22.13;;
22160;SDS011;49035;48.812;11.762;2023-03-05T03:16:45;49.93;;;21.03;;
22160;SDS011;49035;48.812;11.762;2023-03-05T03:19:10;46.27;;;20.43;;
22160;SDS011;49035;48.812;11.762;2023-03-05T03:21:36;48.53;;;21.00;;
22160;SDS011;49035;48.812;11.762;2023-03-05T03:24:02;61.03;;;22.67;;
22160;SDS011;49035;48.812;11.762;2023-03-05T03:26:28;47.43;;;21.73;;
22160;SDS011;49035;48.812;11.762;2023-03-05T03:28:54;55.80;;;22.13;;
22160;SDS011;49035;48.812;11.762;2023-03-05T03:31:23;44.00;;;20.07;;
22160;SDS011;49035;48.812;11.762;2023-03-05T03:33:48;56.17;;;23.20;;
22160;SDS011;49035;48.812;11.762;2023-03-05T03:36:14;48.53;;;20.33;;
22160;SDS011;49035;48.812;11.762;2023-03-05T03:38:40;44.87;;;20.57;;
22160;SDS011;49035;48.812;11.762;2023-03-05T03:41:06;46.07;;;20.00;;
22160;SDS011;49035;48.812;11.762;2023-03-05T03:43:32;48.63;;;21.70;;
22160;SDS011;49035;48.812;11.762;2023-03-05T03:45:59;49.47;;;21.70;;
22160;SDS011;49035;48.812;11.762;2023-03-05T03:48:27;50.13;;;20.90;;
22160;SDS011;49035;48.812;11.762;2023-03-05T03:50:52;51.50;;;21.27;;
22160;SDS011;49035;48.812;11.762;2023-03-05T03:53:18;47.07;;;21.13;;
22160;SDS011;49035;48.812;11.762;2023-03-05T03:55:43;53.33;;;22.50;;
22160;SDS011;49035;48.812;11.762;2023-03-05T03:58:10;45.20;;;20.43;;
22160;SDS011;49035;48.812;11.762;2023-03-05T04:00:36;48.70;;;20.27;;
22160;SDS011;49035;48.812;11.762;2023-03-05T04:03:02;47.00;;;20.93;;
22160;SDS011;49035;48.812;11.762;2023-03-05T04:05:28;48.00;;;20.70;;
22160;SDS011;49035;48.812;11.762;2023-03-05T04:07:54;49.63;;;21.20;;
22160;SDS011;49035;48.812;11.762;2023-03-05T04:10:21;52.30;;;20.23;;
22160;SDS011;49035;48.812;11.762;2023-03-05T04:12:47;45.23;;;20.07;;
22160;SDS011;49035;48.812;11.762;2023-03-05T04:15:12;48.83;;;21.00;;
22160;SDS011;49035;48.812;11.762;2023-03-05T04:17:38;49.33;;;19.83;;
22160;SDS011;49035;48.812;11.762;2023-03-05T04:20:04;45.87;;;21.33;;
22160;SDS011;49035;48.812;11.762;2023-03-05T04:22:32;57.43;;;22.57;;
22160;SDS011;49035;48.812;11.762;2023-03-05T04:24:58;48.30;;;21.27;;
22160;SDS011;49035;48.812;11.762;2023-03-05T04:27:23;44.17;;;20.00;;
22160;SDS011;49035;48.812;11.762;2023-03-05T04:29:49;48.70;;;21.00;;
22160;SDS011;49035;48.812;11.762;2023-03-05T04:32:14;49.10;;;20.43;;
22160;SDS011;49035;48.812;11.762;2023-03-05T04:34:46;54.10;;;20.70;;
22160;SDS011;49035;48.812;11.762;2023-03-05T04:37:12;45.30;;;20.23;;
22160;SDS011;49035;48.812;11.762;2023-03-05T04:39:38;50.13;;;21.00;;
22160;SDS011;49035;48.812;11.762;2023-03-05T04:42:04;52.60;;;21.13;;
22160;SDS011;49035;48.812;11.762;2023-03-05T04:44:29;53.70;;;21.43;;
22160;SDS011;49035;48.812;11.762;2023-03-05T04:46:55;51.40;;;20.87;;
22160;SDS011;49035;48.812;11.762;2023-03-05T04:49:21;44.97;;;19.50;;
22160;SDS011;49035;48.812;11.762;2023-03-05T04:51:46;44.93;;;20.17;;
22160;SDS011;49035;48.812;11.762;2023-03-05T04:54:12;45.43;;;20.40;;
22160;SDS011;49035;48.812;11.762;2023-03-05T04:56:37;46.47;;;21.73;;
22160;SDS011;49035;48.812;11.762;2023-03-05T04:59:03;43.27;;;20.10;;
22160;SDS011;49035;48.812;11.762;2023-03-05T05:01:28;53.37;;;21.27;;
22160;SDS011;49035;48.812;11.762;2023-03-05T05:03:54;49.13;;;20.67;;
22160;SDS011;49035;48.812;11.762;2023-03-05T05:06:19;52.73;;;22.13;;
22160;SDS011;49035;48.812;11.762;2023-03-05T05:08:45;55.47;;;22.73;;
22160;SDS011;49035;48.812;11.762;2023-03-05T05:11:11;47.83;;;21.37;;
22160;SDS011;49035;48.812;11.762;2023-03-05T05:13:38;48.63;;;21.37;;
22160;SDS011;49035;48.812;11.762;2023-03-05T05:16:07;47.83;;;21.37;;
22160;SDS011;49035;48.812;11.762;2023-03-05T05:18:33;42.23;;;20.23;;
22160;SDS011;49035;48.812;11.762;2023-03-05T05:20:58;50.17;;;20.30;;
22160;SDS011;49035;48.812;11.762;2023-03-05T05:23:25;51.70;;;22.47;;
22160;SDS011;49035;48.812;11.762;2023-03-05T05:26:00;51.03;;;21.70;;
22160;SDS011;49035;48.812;11.762;2023-03-05T05:28:27;52.90;;;21.10;;
22160;SDS011;49035;48.812;11.762;2023-03-05T05:30:53;54.67;;;21.90;;
22160;SDS011;49035;48.812;11.762;2023-03-05T05:33:19;49.03;;;21.97;;
22160;SDS011;49035;48.812;11.762;2023-03-05T05:35:45;51.87;;;22.17;;
22160;SDS011;49035;48.812;11.762;2023-03-05T05:38:11;51.67;;;22.70;;
22160;SDS011;49035;48.812;11.762;2023-03-05T05:40:37;52.37;;;22.73;;
22160;SDS011;49035;48.812;11.762;2023-03-05T05:43:02;48.87;;;20.70;;
22160;SDS011;49035;48.812;11.762;2023-03-05T05:45:28;57.33;;;22.57;;
22160;SDS011;49035;48.812;11.762;2023-03-05T05:47:54;50.70;;;22.07;;
22160;SDS011;49035;48.812;11.762;2023-03-05T05:50:20;55.50;;;21.60;;
22160;SDS011;49035;48.812;11.762;2023-03-05T05:52:45;52.67;;;21.97;;
22160;SDS011;49035;48.812;11.762;2023-03-05T05:55:11;55.97;;;22.27;;
22160;SDS011;49035;48.812;11.762;2023-03-05T05:57:37;58.70;;;22.17;;
22160;SDS011;49035;48.812;11.762;2023-03-05T06:00:04;50.07;;;22.37;;
22160;SDS011;49035;48.812;11.762;2023-03-05T06:02:32;54.83;;;22.43;;
22160;SDS011;49035;48.812;11.762;2023-03-05T06:04:58;52.33;;;21.03;;
22160;SDS011;49035;48.812;11.762;2023-03-05T06:07:24;54.47;;;22.30;;
22160;SDS011;49035;48.812;11.762;2023-03-05T06:09:49;57.37;;;23.13;;
22160;SDS011;49035;48.812;11.762;2023-03-05T06:12:15;55.77;;;23.27;;
22160;SDS011;49035;48.812;11.762;2023-03-05T06:14:40;55.87;;;22.70;;
22160;SDS011;49035;48.812;11.762;2023-03-05T06:17:06;48.60;;;22.80;;
22160;SDS011;49035;48.812;11.762;2023-03-05T06:19:32;53.87;;;22.17;;
22160;SDS011;49035;48.812;11.762;2023-03-05T06:21:57;51.10;;;21.57;;
22160;SDS011;49035;48.812;11.762;2023-03-05T06:24:23;54.00;;;22.47;;
22160;SDS011;49035;48.812;11.762;2023-03-05T06:26:48;52.07;;;22.10;;
22160;SDS011;49035;48.812;11.762;2023-03-05T06:29:14;55.40;;;22.87;;
22160;SDS011;49035;48.812;11.762;2023-03-05T06:31:40;54.33;;;22.83;;
22160;SDS011;49035;48.812;11.762;2023-03-05T06:34:05;53.73;;;22.40;;
22160;SDS011;49035;48.812;11.762;2023-03-05T06:36:31;53.67;;;23.47;;
22160;SDS011;49035;48.812;11.762;2023-03-05T06:38:57;54.50;;;21.70;;
22160;SDS011;49035;48.812;11.762;2023-03-05T06:41:24;60.27;;;21.93;;
22160;SDS011;49035;48.812;11.762;2023-03-05T06:43:51;49.63;;;23.00;;
22160;SDS011;49035;48.812;11.762;2023-03-05T06:46:19;54.67;;;23.27;;
22160;SDS011;49035;48.812;11.762;2023-03-05T06:48:46;53.17;;;22.93;;
22160;SDS011;49035;48.812;11.762;2023-03-05T06:51:17;47.80;;;21.13;;
22160;SDS011;49035;48.812;11.762;2023-03-05T06:53:44;53.80;;;23.20;;
22160;SDS011;49035;48.812;11.762;2023-03-05T06:56:10;48.90;;;21.80;;
22160;SDS011;49035;48.812;11.762;2023-03-05T06:58:38;49.40;;;22.07;;
22160;SDS011;49035;48.812;11.762;2023-03-05T07:01:07;57.67;;;23.27;;
22160;SDS011;49035;48.812;11.762;2023-03-05T07:03:33;49.77;;;22.17;;
22160;SDS011;49035;48.812;11.762;2023-03-05T07:06:03;52.60;;;23.43;;
22160;SDS011;49035;48.812;11.762;2023-03-05T07:08:31;57.17;;;23.10;;
22160;SDS011;49035;48.812;11.762;2023-03-05T07:10:56;51.00;;;22.73;;
22160;SDS011;49035;48.812;11.762;2023-03-05T07:13:22;56.93;;;22.57;;
22160;SDS011;49035;48.812;11.762;2023-03-05T07:15:48;49.73;;;22.97;;
22160;SDS011;49035;48.812;11.762;2023-03-05T07:18:15;50.50;;;22.57;;
22160;SDS011;49035;48.812;11.762;2023-03-05T07:20:40;55.13;;;22.27;;
22160;SDS011;49035;48.812;11.762;2023-03-05T07:23:06;48.40;;;22.37;;
22160;SDS011;49035;48.812;11.762;2023-03-05T07:25:34;51.70;;;22.53;;
22160;SDS011;49035;48.812;11.762;2023-03-05T07:28:01;47.17;;;22.17;;
22160;SDS011;49035;48.812;11.762;2023-03-05T07:30:29;46.07;;;21.57;;
22160;SDS011;49035;48.812;11.762;2023-03-05T07:32:55;49.13;;;22.07;;
22160;SDS011;49035;48.812;11.762;2023-03-05T07:35:20;50.10;;;23.23;;
22160;SDS011;49035;48.812;11.762;2023-03-05T07:37:48;48.33;;;22.30;;
22160;SDS011;49035;48.812;11.762;2023-03-05T07:40:13;45.77;;;22.77;;
22160;SDS011;49035;48.812;11.762;2023-03-05T07:42:39;47.53;;;21.50;;
22160;SDS011;49035;48.812;11.762;2023-03-05T07:45:05;49.60;;;22.97;;
22160;SDS011;49035;48.812;11.762;2023-03-05T07:47:31;49.63;;;23.60;;
22160;SDS011;49035;48.812;11.762;2023-03-05T07:49:56;49.13;;;21.53;;
22160;SDS011;49035;48.812;11.762;2023-03-05T07:52:22;54.53;;;22.07;;
22160;SDS011;49035;48.812;11.762;2023-03-05T07:54:48;56.23;;;23.77;;
22160;SDS011;49035;48.812;11.762;2023-03-05T07:57:13;49.23;;;21.87;;
22160;SDS011;49035;48.812;11.762;2023-03-05T07:59:39;52.97;;;22.07;;
22160;SDS011;49035;48.812;11.762;2023-03-05T08:02:05;47.57;;;22.60;;
22160;SDS011;49035;48.812;11.762;2023-03-05T08:04:31;51.63;;;20.83;;
22160;SDS011;49035;48.812;11.762;2023-03-05T08:06:57;48.23;;;22.57;;
22160;SDS011;49035;48.812;11.762;2023-03-05T08:09:23;54.03;;;21.67;;
22160;SDS011;49035;48.812;11.762;2023-03-05T08:11:49;48.10;;;21.83;;
22160;SDS011;49035;48.812;11.762;2023-03-05T08:14:15;53.27;;;22.57;;
22160;SDS011;49035;48.812;11.762;2023-03-05T08:16:40;47.40;;;21.70;;
22160;SDS011;49035;48.812;11.762;2023-03-05T08:19:06;48.17;;;21.93;;
22160;SDS011;49035;48.812;11.762;2023-03-05T08:21:33;50.27;;;22.17;;
22160;SDS011;49035;48.812;11.762;2023-03-05T08:24:01;48.77;;;22.23;;
22160;SDS011;49035;48.812;11.762;2023-03-05T08:26:28;47.70;;;21.70;;
22160;SDS011;49035;48.812;11.762;2023-03-05T08:28:55;47.23;;;22.40;;
22160;SDS011;49035;48.812;11.762;2023-03-05T08:31:21;54.50;;;21.60;;
22160;SDS011;49035;48.812;11.762;2023-03-05T08:33:49;51.13;;;22.70;;
22160;SDS011;49035;48.812;11.762;2023-03-05T08:36:16;48.47;;;22.60;;
22160;SDS011;49035;48.812;11.762;2023-03-05T08:38:42;42.77;;;21.70;;
22160;SDS011;49035;48.812;11.762;2023-03-05T08:41:08;47.83;;;21.43;;
22160;SDS011;49035;48.812;11.762;2023-03-05T08:43:35;52.47;;;23.60;;
22160;SDS011;49035;48.812;11.762;2023-03-05T08:46:00;49.47;;;22.03;;
22160;SDS011;49035;48.812;11.762;2023-03-05T08:48:26;49.87;;;23.93;;
22160;SDS011;49035;48.812;11.762;2023-03-05T08:50:52;52.27;;;24.27;;
22160;SDS011;49035;48.812;11.762;2023-03-05T08:53:19;51.60;;;22.37;;
22160;SDS011;49035;48.812;11.762;2023-03-05T08:55:52;52.13;;;23.37;;
22160;SDS011;49035;48.812;11.762;2023-03-05T08:58:19;45.80;;;22.20;;
22160;SDS011;49035;48.812;11.762;2023-03-05T09:00:45;52.30;;;23.53;;
22160;SDS011;49035;48.812;11.762;2023-03-05T09:03:10;50.63;;;23.67;;
22160;SDS011;49035;48.812;11.762;2023-03-05T09:05:36;54.17;;;22.83;;
22160;SDS011;49035;48.812;11.762;2023-03-05T09:08:01;57.27;;;23.53;;
22160;SDS011;49035;48.812;11.762;2023-03-05T09:10:27;52.67;;;23.17;;
22160;SDS011;49035;48.812;11.762;2023-03-05T09:12:52;54.30;;;23.93;;
22160;SDS011;49035;48.812;11.762;2023-03-05T09:15:18;51.20;;;22.67;;
22160;SDS011;49035;48.812;11.762;2023-03-05T09:17:43;53.83;;;22.53;;
22160;SDS011;49035;48.812;11.762;2023-03-05T09:20:10;51.53;;;22.43;;
22160;SDS011;49035;48.812;11.762;2023-03-05T09:22:37;47.87;;;22.90;;
22160;SDS011;49035;48.812;11.762;2023-03-05T09:25:03;49.30;;;22.10;;
22160;SDS011;49035;48.812;11.762;2023-03-05T09:27:31;50.27;;;23.23;;
22160;SDS011;49035;48.812;11.762;2023-03-05T09:29:58;51.23;;;22.90;;
22160;SDS011;49035;48.812;11.762;2023-03-05T09:32:24;47.83;;;22.13;;
22160;SDS011;49035;48.812;11.762;2023-03-05T09:34:49;58.07;;;22.90;;
22160;SDS011;49035;48.812;11.762;2023-03-05T09:37:15;46.47;;;22.27;;
22160;SDS011;49035;48.812;11.762;2023-03-05T09:39:40;52.03;;;23.70;;
22160;SDS011;49035;48.812;11.762;2023-03-05T09:53:02;44.70;;;20.83;;
22160;SDS011;49035;48.812;11.762;2023-03-05T09:55:38;45.93;;;21.07;;
22160;SDS011;49035;48.812;11.762;2023-03-05T09:58:12;53.40;;;21.33;;
22160;SDS011;49035;48.812;11.762;2023-03-05T10:00:42;45.53;;;20.87;;
22160;SDS011;49035;48.812;11.762;2023-03-05T10:03:17;50.77;;;23.20;;
22160;SDS011;49035;48.812;11.762;2023-03-05T10:05:55;43.53;;;19.90;;
22160;SDS011;49035;48.812;11.762;2023-03-05T10:14:15;41.57;;;19.37;;
22160;SDS011;49035;48.812;11.762;2023-03-05T10:16:59;39.37;;;19.27;;
22160;SDS011;49035;48.812;11.762;2023-03-05T10:19:43;43.40;;;19.23;;
22160;SDS011;49035;48.812;11.762;2023-03-05T10:27:58;38.93;;;18.03;;
22160;SDS011;49035;48.812;11.762;2023-03-05T10:42:08;39.83;;;19.00;;
22160;SDS011;49035;48.812;11.762;2023-03-05T10:44:45;38.47;;;19.23;;
22160;SDS011;49035;48.812;11.762;2023-03-05T10:49:55;40.23;;;20.57;;
22160;SDS011;49035;48.812;11.762;2023-03-05T10:52:27;52.33;;;25.43;;
22160;SDS011;49035;48.812;11.762;2023-03-05T10:55:00;36.00;;;17.47;;
22160;SDS011;49035;48.812;11.762;2023-03-05T10:57:28;36.07;;;17.90;;
22160;SDS011;49035;48.812;11.762;2023-03-05T11:02:30;40.03;;;16.87;;
22160;SDS011;49035;48.812;11.762;2023-03-05T11:04:57;35.00;;;18.40;;
22160;SDS011;49035;48.812;11.762;2023-03-05T11:12:34;32.80;;;16.20;;
22160;SDS011;49035;48.812;11.762;2023-03-05T11:17:37;32.33;;;16.80;;
22160;SDS011;49035;48.812;11.762;2023-03-05T11:20:22;35.17;;;15.77;;
22160;SDS011;49035;48.812;11.762;2023-03-05T11:25:57;31.70;;;15.43;;
22160;SDS011;49035;48.812;11.762;2023-03-05T11:28:29;29.07;;;14.13;;
22160;SDS011;49035;48.812;11.762;2023-03-05T11:31:05;33.93;;;14.77;;
22160;SDS011;49035;48.812;11.762;2023-03-05T11:33:40;32.90;;;14.57;;
22160;SDS011;49035;48.812;11.762;2023-03-05T11:36:22;33.37;;;14.70;;
22160;SDS011;49035;48.812;11.762;2023-03-05T11:38:56;34.43;;;14.47;;
22160;SDS011;49035;48.812;11.762;2023-03-05T11:41:26;31.50;;;14.13;;
22160;SDS011;49035;48.812;11.762;2023-03-05T11:44:13;27.77;;;13.13;;
22160;SDS011;49035;48.812;11.762;2023-03-05T11:46:53;28.80;;;13.67;;
22160;SDS011;49035;48.812;11.762;2023-03-05T11:49:26;31.00;;;12.87;;
22160;SDS011;49035;48.812;11.762;2023-03-05T11:54:25;25.87;;;12.40;;
22160;SDS011;49035;48.812;11.762;2023-03-05T11:56:57;24.03;;;11.43;;
22160;SDS011;49035;48.812;11.762;2023-03-05T11:59:26;24.40;;;11.77;;
22160;SDS011;49035;48.812;11.762;2023-03-05T12:01:55;24.17;;;11.30;;
22160;SDS011;49035;48.812;11.762;2023-03-05T12:04:22;26.57;;;12.57;;
22160;SDS011;49035;48.812;11.762;2023-03-05T12:06:56;24.47;;;11.70;;
22160;SDS011;49035;48.812;11.762;2023-03-05T12:11:55;21.90;;;10.27;;
22160;SDS011;49035;48.812;11.762;2023-03-05T12:14:33;20.97;;;10.90;;
22160;SDS011;49035;48.812;11.762;2023-03-05T12:17:14;20.60;;;9.83;;
22160;SDS011;49035;48.812;11.762;2023-03-05T12:22:23;20.60;;;9.47;;
22160;SDS011;49035;48.812;11.762;2023-03-05T12:27:54;22.97;;;10.37;;
22160;SDS011;49035;48.812;11.762;2023-03-05T12:32:59;20.80;;;10.17;;
22160;SDS011;49035;48.812;11.762;2023-03-05T12:37:56;19.30;;;9.50;;
22160;SDS011;49035;48.812;11.762;2023-03-05T12:40:27;19.80;;;9.90;;
22160;SDS011;49035;48.812;11.762;2023-03-05T12:42:57;22.23;;;10.33;;
22160;SDS011;49035;48.812;11.762;2023-03-05T12:45:25;21.23;;;10.40;;
22160;SDS011;49035;48.812;11.762;2023-03-05T12:52:50;23.27;;;11.20;;
22160;SDS011;49035;48.812;11.762;2023-03-05T12:55:35;24.87;;;11.13;;
22160;SDS011;49035;48.812;11.762;2023-03-05T12:58:19;21.93;;;10.17;;
22160;SDS011;49035;48.812;11.762;2023-03-05T13:03:55;27.30;;;12.07;;
22160;SDS011;49035;48.812;11.762;2023-03-05T13:06:33;31.07;;;14.83;;
22160;SDS011;49035;48.812;11.762;2023-03-05T13:09:01;19.03;;;9.93;;
22160;SDS011;49035;48.812;11.762;2023-03-05T13:11:29;18.60;;;9.03;;
22160;SDS011;49035;48.812;11.762;2023-03-05T13:13:58;17.77;;;10.30;;
22160;SDS011;49035;48.812;11.762;2023-03-05T13:16:26;22.70;;;10.47;;
22160;SDS011;49035;48.812;11.762;2023-03-05T13:18:55;23.83;;;10.80;;
22160;SDS011;49035;48.812;11.762;2023-03-05T13:21:24;24.17;;;11.77;;
22160;SDS011;49035;48.812;11.762;2023-03-05T13:23:53;20.33;;;9.57;;
22160;SDS011;49035;48.812;11.762;2023-03-05T13:26:25;16.20;;;8.03;;
22160;SDS011;49035;48.812;11.762;2023-03-05T13:31:44;13.37;;;7.13;;
22160;SDS011;49035;48.812;11.762;2023-03-05T13:34:29;11.47;;;6.70;;
22160;SDS011;49035;48.812;11.762;2023-03-05T13:39:56;12.00;;;5.90;;
22160;SDS011;49035;48.812;11.762;2023-03-05T13:42:25;11.13;;;6.10;;
22160;SDS011;49035;48.812;11.762;2023-03-05T13:44:59;12.63;;;6.13;;
22160;SDS011;49035;48.812;11.762;2023-03-05T13:47:31;12.67;;;5.70;;
22160;SDS011;49035;48.812;11.762;2023-03-05T13:50:05;9.47;;;5.13;;
22160;SDS011;49035;48.812;11.762;2023-03-05T13:52:34;13.97;;;6.00;;
22160;SDS011;49035;48.812;11.762;2023-03-05T13:55:02;9.27;;;5.87;;
22160;SDS011;49035;48.812;11.762;2023-03-05T14:02:50;15.57;;;5.97;;
22160;SDS011;49035;48.812;11.762;2023-03-05T14:05:17;10.60;;;5.20;;
22160;SDS011;49035;48.812;11.762;2023-03-05T14:07:44;14.10;;;5.60;;
22160;SDS011;49035;48.812;11.762;2023-03-05T14:13:02;6.83;;;4.67;;
22160;SDS011;49035;48.812;11.762;2023-03-05T14:15:31;6.67;;;3.90;;
22160;SDS011;49035;48.812;11.762;2023-03-05T14:20:55;5.57;;;3.53;;
22160;SDS011;49035;48.812;11.762;2023-03-05T14:28:40;10.27;;;4.93;;
22160;SDS011;49035;48.812;11.762;2023-03-05T14:31:09;9.30;;;4.13;;
22160;SDS011;49035;48.812;11.762;2023-03-05T14:33:39;10.13;;;4.73;;
22160;SDS011;49035;48.812;11.762;2023-03-05T14:36:05;7.33;;;4.07;;
22160;SDS011;49035;48.812;11.762;2023-03-05T14:38:33;8.13;;;4.20;;
22160;SDS011;49035;48.812;11.762;2023-03-05T14:41:26;7.10;;;5.03;;
22160;SDS011;49035;48.812;11.762;2023-03-05T14:43:58;12.33;;;5.17;;
22160;SDS011;49035;48.812;11.762;2023-03-05T14:46:25;9.50;;;4.70;;
22160;SDS011;49035;48.812;11.762;2023-03-05T14:48:50;9.63;;;4.70;;
22160;SDS011;49035;48.812;11.762;2023-03-05T14:51:16;11.67;;;5.50;;
22160;SDS011;49035;48.812;11.762;2023-03-05T14:53:43;13.17;;;5.60;;
22160;SDS011;49035;48.812;11.762;2023-03-05T14:56:32;8.57;;;4.43;;
22160;SDS011;49035;48.812;11.762;2023-03-05T14:58:56;9.60;;;4.67;;
22160;SDS011;49035;48.812;11.762;2023-03-05T15:01:22;6.67;;;4.53;;
22160;SDS011;49035;48.812;11.762;2023-03-05T15:03:49;8.37;;;4.23;;
22160;SDS011;49035;48.812;11.762;2023-03-05T15:06:29;6.80;;;3.90;;
22160;SDS011;49035;48.812;11.762;2023-03-05T15:08:58;7.63;;;4.27;;
22160;SDS011;49035;48.812;11.762;2023-03-05T15:11:24;8.20;;;4.70;;
22160;SDS011;49035;48.812;11.762;2023-03-05T15:13:50;9.63;;;3.77;;
22160;SDS011;49035;48.812;11.762;2023-03-05T15:16:16;7.90;;;3.73;;
22160;SDS011;49035;48.812;11.762;2023-03-05T15:18:43;10.17;;;4.07;;
22160;SDS011;49035;48.812;11.762;2023-03-05T15:21:08;6.97;;;4.07;;
22160;SDS011;49035;48.812;11.762;2023-03-05T15:23:34;9.40;;;4.13;;
22160;SDS011;49035;48.812;11.762;2023-03-05T15:26:02;10.20;;;4.30;;
22160;SDS011;49035;48.812;11.762;2023-03-05T15:28:34;9.13;;;4.43;;
22160;SDS011;49035;48.812;11.762;2023-03-05T15:31:02;9.07;;;4.37;;
22160;SDS011;49035;48.812;11.762;2023-03-05T15:33:28;7.20;;;4.33;;
22160;SDS011;49035;48.812;11.762;2023-03-05T15:35:54;8.87;;;4.90;;
22160;SDS011;49035;48.812;11.762;2023-03-05T15:38:21;9.07;;;4.53;;
22160;SDS011;49035;48.812;11.762;2023-03-05T15:40:47;9.10;;;4.70;;
22160;SDS011;49035;48.812;11.762;2023-03-05T15:43:13;10.17;;;4.63;;
22160;SDS011;49035;48.812;11.762;2023-03-05T15:45:39;10.83;;;4.93;;
22160;SDS011;49035;48.812;11.762;2023-03-05T15:48:05;10.97;;;5.27;;
22160;SDS011;49035;48.812;11.762;2023-03-05T15:50:31;9.23;;;5.30;;
22160;SDS011;49035;48.812;11.762;2023-03-05T15:52:56;10.43;;;5.47;;
22160;SDS011;49035;48.812;11.762;2023-03-05T15:55:22;13.63;;;5.93;;
22160;SDS011;49035;48.812;11.762;2023-03-05T15:57:49;11.63;;;6.70;;